Time;durP1;ratioP1;P1;durP2;ratioP2;P2;SDS_P1;SDS_P2;PMS_P1;PMS_P2;Temp;Humidity;BMP_temperature;BMP_pressure;BME280_temperature;BME280_humidity;BME280_pressure;Samples;Min_cycle;Max_cycle;Signal;HPM_P1;HPM_P2
2022/11/17 00:01:51;;;;;;;16.25;11.23;;;4.00;99.90;;;;;;5040201;28;20027;-51
2022/11/17 00:04:17;;;;;;;15.93;10.40;;;3.90;99.90;;;;;;5050054;28;20032;-49
2022/11/17 00:06:43;;;;;;;16.20;10.52;;;4.00;99.90;;;;;;5045810;28;20086;-49
2022/11/17 00:09:16;;;;;;;15.38;10.48;;;3.90;99.90;;;;;;5057943;28;20029;-47
2022/11/17 00:14:32;;;;;;;16.02;11.18;;;3.90;99.90;;;;;;5041242;28;20420;-49
2022/11/17 00:16:59;;;;;;;14.20;10.63;;;3.80;99.90;;;;;;5043901;28;20025;-46
2022/11/17 00:22:08;;;;;;;13.48;10.50;;;3.80;99.90;;;;;;5034454;28;20477;-47
2022/11/17 00:24:34;;;;;;;17.42;10.57;;;3.80;99.90;;;;;;5058521;28;20063;-45
2022/11/17 00:27:02;;;;;;;17.20;11.10;;;3.80;99.90;;;;;;5049547;28;20041;-46
2022/11/17 00:29:29;;;;;;;15.85;11.00;;;3.70;99.90;;;;;;5045435;28;20068;-45
2022/11/17 00:34:39;;;;;;;14.30;10.57;;;3.70;99.90;;;;;;5044165;28;20039;-47
2022/11/17 00:37:05;;;;;;;14.68;10.50;;;3.70;99.90;;;;;;5053094;28;20017;-48
2022/11/17 00:39:31;;;;;;;15.13;9.90;;;3.70;99.90;;;;;;5045147;28;20041;-48
2022/11/17 00:41:57;;;;;;;15.23;9.93;;;3.70;99.90;;;;;;5045602;28;20082;-50
2022/11/17 00:44:24;;;;;;;12.85;10.23;;;3.70;99.90;;;;;;5043731;28;20448;-47
2022/11/17 00:46:49;;;;;;;16.88;10.23;;;3.60;99.90;;;;;;5051920;28;20029;-47
2022/11/17 00:49:15;;;;;;;14.68;10.50;;;3.70;99.90;;;;;;5046379;28;20037;-46
2022/11/17 00:55:03;;;;;;;13.65;9.73;;;3.60;99.90;;;;;;5035164;28;20088;-45
2022/11/17 00:57:28;;;;;;;14.40;10.02;;;3.60;99.90;;;;;;5051304;28;20468;-50
2022/11/17 00:59:54;;;;;;;15.05;10.98;;;3.60;99.90;;;;;;5048707;28;20098;-48
2022/11/17 01:02:19;;;;;;;13.13;9.65;;;3.60;99.90;;;;;;5050846;28;20413;-48
2022/11/17 01:04:45;;;;;;;19.30;10.65;;;3.60;99.90;;;;;;5048126;28;20033;-51
2022/11/17 01:07:10;;;;;;;14.68;10.38;;;3.60;99.90;;;;;;5054189;28;20090;-50
2022/11/17 01:09:36;;;;;;;15.82;10.88;;;3.60;99.90;;;;;;5051087;28;20257;-47
2022/11/17 01:12:01;;;;;;;13.30;10.65;;;3.60;99.90;;;;;;5055836;28;20426;-53
2022/11/17 01:14:29;;;;;;;12.93;9.15;;;3.60;99.90;;;;;;5062679;28;20306;-47
2022/11/17 01:16:54;;;;;;;15.10;9.63;;;3.60;99.90;;;;;;5058527;28;20395;-50
2022/11/17 01:19:21;;;;;;;15.23;10.20;;;3.60;99.90;;;;;;5067826;28;20111;-49
2022/11/17 01:21:47;;;;;;;13.20;9.18;;;3.60;99.90;;;;;;5052020;28;20484;-46
2022/11/17 01:24:15;;;;;;;14.13;9.30;;;3.60;99.90;;;;;;5058682;28;20055;-48
2022/11/17 01:26:41;;;;;;;12.73;8.43;;;3.60;99.90;;;;;;5062400;28;20086;-46
2022/11/17 01:29:09;;;;;;;13.95;9.82;;;3.50;99.90;;;;;;5051258;28;20078;-47
2022/11/17 01:31:38;;;;;;;12.32;9.07;;;3.60;99.90;;;;;;5068541;28;20101;-46
2022/11/17 01:34:05;;;;;;;12.95;9.30;;;3.60;99.90;;;;;;5071211;28;20031;-46
2022/11/17 01:39:22;;;;;;;13.35;9.23;;;3.60;99.90;;;;;;5068623;28;20043;-46
2022/11/17 01:41:47;;;;;;;13.07;10.13;;;3.60;99.90;;;;;;5052935;28;20020;-50
2022/11/17 01:44:35;;;;;;;12.68;9.13;;;3.50;99.90;;;;;;5070934;28;20404;-50
2022/11/17 01:47:03;;;;;;;12.52;9.30;;;3.40;99.90;;;;;;5055377;28;20025;-48
2022/11/17 01:49:29;;;;;;;12.73;9.65;;;3.50;99.90;;;;;;5071003;28;20082;-45
2022/11/17 01:52:01;;;;;;;14.70;9.63;;;3.40;99.90;;;;;;5054290;28;20032;-49
2022/11/17 01:54:28;;;;;;;13.25;9.35;;;3.40;99.90;;;;;;5071218;28;20029;-52
2022/11/17 01:56:59;;;;;;;13.15;9.05;;;3.40;99.90;;;;;;5053789;28;20016;-50
2022/11/17 01:59:36;;;;;;;15.95;8.52;;;3.40;99.90;;;;;;5070641;28;20036;-51
2022/11/17 02:02:02;;;;;;;14.70;9.60;;;3.40;99.90;;;;;;5040414;28;20052;-46
2022/11/17 02:04:36;;;;;;;11.93;8.43;;;3.40;99.90;;;;;;5070533;28;20040;-49
2022/11/17 02:07:18;;;;;;;13.20;9.77;;;3.40;99.90;;;;;;5040435;28;20434;-51
2022/11/17 02:09:45;;;;;;;15.13;10.13;;;3.40;99.90;;;;;;5070522;28;20077;-47
2022/11/17 02:12:13;;;;;;;13.00;9.93;;;3.40;99.90;;;;;;5055910;28;20115;-50
2022/11/17 02:14:39;;;;;;;12.45;9.23;;;3.40;99.90;;;;;;5070389;28;20127;-53
2022/11/17 02:17:08;;;;;;;12.95;9.43;;;3.40;99.90;;;;;;5055051;28;20404;-48
2022/11/17 02:19:40;;;;;;;13.32;9.20;;;3.40;99.90;;;;;;5070455;28;20032;-50
2022/11/17 02:22:30;;;;;;;13.32;9.60;;;3.40;99.90;;;;;;5054866;28;20040;-48
2022/11/17 02:25:17;;;;;;;15.30;8.93;;;3.40;99.90;;;;;;5070257;28;20036;-50
2022/11/17 02:28:01;;;;;;;14.68;9.85;;;3.40;99.90;;;;;;5037989;28;20029;-44
2022/11/17 02:30:35;;;;;;;13.35;9.43;;;3.40;99.90;;;;;;5030059;28;20104;-46
2022/11/17 02:33:15;;;;;;;14.30;9.68;;;3.40;99.90;;;;;;5042391;28;20545;-49
2022/11/17 02:35:49;;;;;;;12.57;9.50;;;3.40;99.90;;;;;;5045924;28;20025;-50
2022/11/17 02:38:33;;;;;;;13.63;9.52;;;3.40;99.90;;;;;;5030318;28;20083;-46
2022/11/17 02:41:21;;;;;;;13.40;8.95;;;3.40;99.90;;;;;;5065740;28;20424;-48
2022/11/17 02:47:28;;;;;;;13.70;8.88;;;3.40;99.90;;;;;;5067953;28;20085;-44
2022/11/17 02:49:59;;;;;;;12.02;9.27;;;3.40;99.90;;;;;;5029849;28;20354;-48
2022/11/17 02:52:27;;;;;;;13.25;8.23;;;3.40;99.90;;;;;;5029794;28;20069;-48
2022/11/17 02:54:57;;;;;;;12.80;8.55;;;3.40;99.90;;;;;;5068876;28;20033;-45
2022/11/17 02:57:35;;;;;;;13.23;9.52;;;3.40;99.90;;;;;;5029737;28;20048;-48
2022/11/17 03:00:18;;;;;;;12.75;9.02;;;3.40;99.90;;;;;;5067075;28;20029;-46
2022/11/17 03:03:06;;;;;;;11.13;8.55;;;3.40;99.90;;;;;;5069482;28;20020;-44
2022/11/17 03:06:06;;;;;;;12.88;9.27;;;3.40;99.90;;;;;;5037027;28;20035;-48
2022/11/17 03:08:57;;;;;;;13.98;9.40;;;3.40;99.90;;;;;;5069625;28;20079;-47
2022/11/17 03:11:34;;;;;;;13.00;8.93;;;3.40;99.90;;;;;;5051149;28;20020;-45
2022/11/17 03:14:19;;;;;;;13.23;9.02;;;3.40;99.90;;;;;;5029486;28;20087;-44
2022/11/17 03:16:56;;;;;;;13.52;8.82;;;3.40;99.90;;;;;;5052654;28;20591;-43
2022/11/17 03:19:34;;;;;;;11.20;8.88;;;3.40;99.90;;;;;;5029308;28;20036;-43
2022/11/17 03:22:18;;;;;;;13.07;8.90;;;3.40;99.90;;;;;;5044341;28;20036;-44
2022/11/17 03:28:08;;;;;;;12.32;8.95;;;3.40;99.90;;;;;;5055771;28;20067;-45
2022/11/17 03:30:37;;;;;;;12.77;8.88;;;3.40;99.90;;;;;;5049039;28;20064;-49
2022/11/17 03:33:08;;;;;;;14.20;9.55;;;3.50;99.90;;;;;;5047182;28;20039;-47
2022/11/17 03:35:37;;;;;;;13.27;8.68;;;3.40;99.90;;;;;;5029074;28;20041;-43
2022/11/17 03:38:08;;;;;;;13.15;9.68;;;3.40;99.90;;;;;;5048238;28;20524;-44
2022/11/17 03:40:38;;;;;;;13.45;9.98;;;3.40;99.90;;;;;;5028859;28;20053;-46
2022/11/17 03:43:07;;;;;;;12.85;9.77;;;3.40;99.90;;;;;;5048072;28;20508;-44
2022/11/17 03:45:48;;;;;;;13.82;10.13;;;3.40;99.90;;;;;;5068305;28;20029;-43
2022/11/17 03:48:54;;;;;;;13.55;9.45;;;3.30;99.90;;;;;;5028856;28;20123;-43
2022/11/17 03:51:37;;;;;;;15.18;10.23;;;3.30;99.90;;;;;;4969556;28;20479;-45
2022/11/17 03:54:03;;;;;;;12.60;9.52;;;3.30;99.90;;;;;;5045228;28;20037;-44
2022/11/17 03:56:54;;;;;;;17.88;10.38;;;3.30;99.90;;;;;;5066011;28;20073;-47
2022/11/17 03:59:52;;;;;;;12.80;8.70;;;3.30;99.90;;;;;;5068500;28;20028;-42
2022/11/17 04:02:20;;;;;;;13.73;9.20;;;3.30;99.90;;;;;;5049270;28;20032;-45
2022/11/17 04:07:30;;;;;;;13.55;9.40;;;3.40;99.90;;;;;;5033293;28;20055;-46
2022/11/17 04:09:56;;;;;;;16.90;10.25;;;3.40;99.90;;;;;;5068726;28;20027;-43
2022/11/17 04:17:50;;;;;;;19.13;9.73;;;3.40;99.90;;;;;;5038905;28;20035;-45
2022/11/17 04:20:16;;;;;;;12.88;9.15;;;3.40;99.90;;;;;;5067265;28;20109;-47
2022/11/17 04:22:41;;;;;;;12.80;9.50;;;3.50;99.90;;;;;;5051843;28;20020;-43
2022/11/17 04:25:07;;;;;;;16.42;10.60;;;3.50;99.90;;;;;;5068545;28;20033;-45
2022/11/17 04:30:17;;;;;;;15.15;11.23;;;3.50;99.90;;;;;;5028531;28;20033;-44
2022/11/17 04:32:42;;;;;;;14.40;10.02;;;3.50;99.90;;;;;;5065148;28;20024;-48
2022/11/17 04:35:08;;;;;;;15.63;10.93;;;3.50;99.90;;;;;;5067303;28;20025;-45
2022/11/17 04:37:33;;;;;;;16.08;10.60;;;3.50;99.90;;;;;;5072697;28;20077;-47
2022/11/17 04:39:59;;;;;;;13.77;9.88;;;3.50;99.90;;;;;;5055149;28;20063;-45
2022/11/17 04:42:25;;;;;;;15.43;10.63;;;3.50;99.90;;;;;;5052523;28;20021;-44
2022/11/17 04:44:50;;;;;;;14.85;10.73;;;3.50;99.90;;;;;;5069587;28;20044;-44
2022/11/17 04:47:16;;;;;;;17.10;11.32;;;3.50;99.90;;;;;;5072512;28;20036;-46
2022/11/17 04:49:41;;;;;;;16.98;10.73;;;3.50;99.90;;;;;;5051430;28;20033;-45
2022/11/17 04:52:07;;;;;;;13.13;10.00;;;3.50;99.90;;;;;;5072435;28;20029;-46
2022/11/17 04:54:32;;;;;;;15.40;10.48;;;3.50;99.90;;;;;;5052757;28;20048;-48
2022/11/17 04:56:58;;;;;;;18.83;11.30;;;3.50;99.90;;;;;;5070000;28;20428;-49
2022/11/17 04:59:24;;;;;;;16.63;11.40;;;3.50;99.90;;;;;;5053051;28;20412;-47
2022/11/17 05:01:49;;;;;;;16.27;10.60;;;3.50;99.90;;;;;;5052134;28;20060;-41
2022/11/17 05:04:54;;;;;;;13.05;9.80;;;3.50;99.90;;;;;;5071505;28;20035;-42
2022/11/17 05:07:02;;;;;;;13.60;9.20;;;3.50;99.90;;;;;;5032182;28;20033;-45
2022/11/17 05:09:28;;;;;;;17.30;11.52;;;3.60;99.90;;;;;;5070740;28;20520;-42
2022/11/17 05:14:37;;;;;;;15.02;10.45;;;3.50;99.90;;;;;;5030286;28;20068;-44
2022/11/17 05:17:08;;;;;;;14.90;10.90;;;3.60;99.90;;;;;;5071816;28;20020;-44
2022/11/17 05:19:44;;;;;;;16.83;11.30;;;3.60;99.90;;;;;;5032057;28;20038;-44
2022/11/17 05:24:56;;;;;;;15.50;10.63;;;3.60;99.90;;;;;;5069907;28;20507;-48
2022/11/17 05:27:23;;;;;;;17.58;11.05;;;3.60;99.90;;;;;;5057075;28;20032;-43
2022/11/17 05:29:49;;;;;;;15.05;10.48;;;3.60;99.90;;;;;;5069009;28;20068;-46
2022/11/17 05:35:36;;;;;;;18.98;11.38;;;3.70;99.90;;;;;;5046009;28;20031;-45
2022/11/17 05:38:02;;;;;;;16.63;10.70;;;3.70;99.90;;;;;;5051897;28;20033;-43
2022/11/17 05:40:27;;;;;;;22.55;12.70;;;3.70;99.90;;;;;;5068338;28;20053;-42
2022/11/17 05:42:53;;;;;;;16.95;12.45;;;3.70;99.90;;;;;;5071284;28;20037;-47
2022/11/17 05:45:18;;;;;;;18.33;11.82;;;3.60;99.90;;;;;;5051424;28;20699;-43
2022/11/17 05:47:43;;;;;;;16.33;10.93;;;3.60;99.90;;;;;;5050789;28;20049;-42
2022/11/17 05:50:09;;;;;;;18.10;12.65;;;3.70;99.90;;;;;;5054761;28;20079;-43
2022/11/17 05:52:34;;;;;;;18.88;11.95;;;3.70;99.90;;;;;;5070317;28;20028;-43
2022/11/17 05:55:00;;;;;;;18.55;12.68;;;3.70;99.90;;;;;;5049936;28;20041;-44
2022/11/17 05:57:29;;;;;;;19.08;11.48;;;3.70;99.90;;;;;;5053193;28;20079;-46
2022/11/17 06:00:03;;;;;;;15.15;11.65;;;3.70;99.90;;;;;;5056700;28;20036;-48
2022/11/17 06:02:38;;;;;;;17.85;11.95;;;3.80;99.90;;;;;;5050886;28;20062;-46
2022/11/17 06:05:04;;;;;;;18.48;13.20;;;3.80;99.90;;;;;;5055914;28;20033;-44
2022/11/17 06:07:30;;;;;;;18.48;12.55;;;3.80;99.90;;;;;;5070084;28;20040;-48
2022/11/17 06:09:55;;;;;;;19.92;13.20;;;3.80;99.90;;;;;;5049519;28;20159;-46
2022/11/17 06:12:21;;;;;;;20.20;13.85;;;3.80;99.90;;;;;;5070129;28;20077;-48
2022/11/17 06:14:46;;;;;;;19.58;13.07;;;3.90;99.90;;;;;;5052317;28;20079;-43
2022/11/17 06:17:21;;;;;;;18.10;13.20;;;3.80;99.90;;;;;;5048391;28;20035;-45
2022/11/17 06:19:52;;;;;;;20.23;13.73;;;3.80;99.90;;;;;;5046725;28;20021;-42
2022/11/17 06:22:17;;;;;;;21.13;14.52;;;3.90;99.90;;;;;;5069219;28;20031;-48
2022/11/17 06:24:43;;;;;;;20.10;13.43;;;3.90;99.90;;;;;;5048899;28;20033;-44
2022/11/17 06:27:12;;;;;;;18.75;12.52;;;3.80;99.90;;;;;;5053884;28;20049;-43
2022/11/17 06:29:38;;;;;;;17.70;12.68;;;4.00;99.90;;;;;;5066438;28;20385;-45
2022/11/17 06:32:03;;;;;;;18.83;13.20;;;3.90;99.90;;;;;;5068777;28;20336;-44
2022/11/17 06:34:31;;;;;;;18.35;13.30;;;4.00;99.90;;;;;;5049405;28;20492;-42
2022/11/17 06:36:57;;;;;;;17.70;13.13;;;4.00;99.90;;;;;;5029124;28;20490;-50
2022/11/17 06:39:22;;;;;;;19.48;13.10;;;4.00;99.90;;;;;;5065084;28;20052;-53
2022/11/17 06:41:48;;;;;;;17.05;12.15;;;4.00;99.90;;;;;;5046956;28;20094;-54
2022/11/17 06:44:13;;;;;;;17.60;13.07;;;4.10;99.90;;;;;;5068085;28;20055;-50
2022/11/17 06:46:39;;;;;;;16.98;12.82;;;4.10;99.90;;;;;;5047437;28;20442;-55
2022/11/17 06:49:06;;;;;;;16.88;11.27;;;4.10;99.90;;;;;;5067873;28;20093;-55
2022/11/17 06:51:32;;;;;;;18.80;12.32;;;4.20;99.90;;;;;;5047125;28;20059;-52
2022/11/17 06:53:57;;;;;;;17.58;11.75;;;4.20;99.90;;;;;;5067788;28;20440;-50
2022/11/17 06:56:23;;;;;;;19.20;12.43;;;4.20;99.90;;;;;;5047468;28;20035;-51
2022/11/17 06:58:48;;;;;;;18.70;13.27;;;4.20;99.90;;;;;;5066920;28;20029;-54
2022/11/17 07:01:14;;;;;;;19.13;12.82;;;4.20;99.90;;;;;;5046989;28;20067;-54
2022/11/17 07:03:44;;;;;;;15.48;11.60;;;4.20;99.90;;;;;;5050080;28;20108;-56
2022/11/17 07:06:11;;;;;;;17.60;12.05;;;4.20;99.90;;;;;;5068006;28;20029;-55
2022/11/17 07:08:38;;;;;;;17.73;12.38;;;4.20;99.90;;;;;;5047021;28;20029;-48
2022/11/17 07:11:06;;;;;;;17.85;12.77;;;4.20;99.90;;;;;;5067695;28;20056;-54
2022/11/17 07:13:32;;;;;;;16.45;11.98;;;4.20;99.90;;;;;;5045538;28;20037;-51
2022/11/17 07:16:07;;;;;;;17.13;11.55;;;4.20;99.90;;;;;;5067516;28;20051;-52
2022/11/17 07:18:33;;;;;;;18.02;12.60;;;4.20;99.90;;;;;;5046285;28;20108;-52
2022/11/17 07:21:03;;;;;;;20.23;12.73;;;4.20;99.90;;;;;;5065562;28;20104;-51
2022/11/17 07:23:30;;;;;;;17.73;12.18;;;4.20;99.90;;;;;;5068076;28;20025;-54
2022/11/17 07:25:56;;;;;;;19.60;11.95;;;4.30;99.90;;;;;;5048436;28;20033;-51
2022/11/17 07:28:21;;;;;;;20.10;12.52;;;4.30;99.90;;;;;;5047155;28;20025;-52
2022/11/17 07:30:47;;;;;;;17.15;11.38;;;4.30;99.90;;;;;;5045883;28;20620;-48
2022/11/17 07:33:13;;;;;;;18.58;12.40;;;4.30;99.90;;;;;;5064375;28;20023;-53
2022/11/17 07:35:38;;;;;;;16.70;11.50;;;4.30;99.90;;;;;;5047140;28;20752;-52
2022/11/17 07:38:04;;;;;;;20.40;11.63;;;4.30;99.90;;;;;;5046504;28;20622;-48
2022/11/17 07:40:30;;;;;;;14.50;10.98;;;4.30;99.90;;;;;;5064892;28;20040;-48
2022/11/17 07:42:55;;;;;;;18.02;11.45;;;4.30;99.90;;;;;;5067134;28;20036;-49
2022/11/17 07:45:23;;;;;;;19.40;13.07;;;4.40;99.90;;;;;;5045295;28;20049;-49
2022/11/17 07:47:55;;;;;;;18.13;12.13;;;4.30;99.90;;;;;;5058522;28;20101;-47
2022/11/17 07:50:21;;;;;;;19.70;13.43;;;4.30;99.90;;;;;;5055030;28;20017;-46
2022/11/17 07:52:49;;;;;;;15.75;11.65;;;4.30;99.90;;;;;;5066146;28;20032;-48
2022/11/17 07:55:14;;;;;;;20.52;13.55;;;4.30;99.90;;;;;;5049076;28;20025;-46
2022/11/17 07:57:39;;;;;;;20.65;13.32;;;4.30;99.90;;;;;;5065702;28;20102;-51
2022/11/17 08:00:06;;;;;;;18.70;13.00;;;4.30;99.90;;;;;;5049172;28;20065;-49
2022/11/17 08:02:31;;;;;;;17.10;12.05;;;4.30;99.90;;;;;;5065936;28;20028;-49
2022/11/17 08:04:57;;;;;;;21.27;13.68;;;4.30;99.90;;;;;;5048839;28;20435;-46
2022/11/17 08:07:22;;;;;;;19.92;13.05;;;4.40;99.90;;;;;;5065925;28;20033;-48
2022/11/17 08:09:48;;;;;;;19.58;13.70;;;4.40;99.90;;;;;;5048781;28;20029;-48
2022/11/17 08:12:13;;;;;;;21.70;13.93;;;4.40;99.90;;;;;;5065836;28;20024;-46
2022/11/17 08:14:38;;;;;;;20.45;12.80;;;4.40;99.90;;;;;;5068480;28;20393;-48
2022/11/17 08:17:04;;;;;;;19.55;13.82;;;4.40;99.90;;;;;;5051994;28;20063;-48
2022/11/17 08:19:29;;;;;;;22.60;13.48;;;4.40;99.90;;;;;;5068425;28;20492;-48
2022/11/17 08:21:55;;;;;;;18.73;12.80;;;4.40;99.90;;;;;;5050764;28;20031;-46
2022/11/17 08:24:20;;;;;;;19.52;12.50;;;4.40;99.90;;;;;;5068133;28;20033;-46
2022/11/17 08:26:46;;;;;;;20.55;13.15;;;4.40;99.90;;;;;;5045106;28;20843;-48
2022/11/17 08:29:11;;;;;;;20.40;12.73;;;4.40;99.90;;;;;;5048319;28;20017;-51
2022/11/17 08:31:37;;;;;;;20.83;13.93;;;4.40;99.90;;;;;;5065324;28;20029;-47
2022/11/17 08:34:03;;;;;;;21.40;13.27;;;4.40;99.90;;;;;;5068440;28;20447;-50
2022/11/17 08:36:28;;;;;;;19.70;13.05;;;4.50;99.90;;;;;;5046661;28;20029;-49
2022/11/17 08:38:54;;;;;;;17.73;12.25;;;4.40;99.90;;;;;;5068415;28;20032;-48
2022/11/17 08:41:20;;;;;;;22.27;12.63;;;4.40;99.90;;;;;;5048606;28;20508;-48
2022/11/17 08:43:46;;;;;;;18.70;12.45;;;4.50;99.90;;;;;;5046363;28;20024;-50
2022/11/17 08:46:12;;;;;;;18.45;11.95;;;4.50;99.90;;;;;;5067410;28;20411;-50
2022/11/17 08:48:38;;;;;;;21.30;14.00;;;4.50;99.90;;;;;;5046784;28;20060;-49
2022/11/17 08:51:05;;;;;;;18.92;12.27;;;4.50;99.90;;;;;;5067216;28;20106;-48
2022/11/17 08:53:31;;;;;;;20.20;12.60;;;4.50;99.90;;;;;;5046486;28;20032;-49
2022/11/17 08:55:56;;;;;;;21.08;14.52;;;4.50;99.90;;;;;;5067147;28;20547;-51
2022/11/17 08:58:22;;;;;;;19.63;12.52;;;4.50;99.90;;;;;;5046763;28;20029;-51
2022/11/17 09:00:47;;;;;;;20.95;13.63;;;4.50;99.90;;;;;;5067281;28;20028;-49
2022/11/17 09:03:13;;;;;;;20.90;13.45;;;4.50;99.90;;;;;;5046545;28;20044;-45
2022/11/17 09:05:41;;;;;;;20.52;12.68;;;4.50;99.90;;;;;;5067191;28;20033;-47
2022/11/17 09:08:07;;;;;;;19.63;13.18;;;4.50;99.90;;;;;;5044877;28;20063;-49
2022/11/17 09:10:35;;;;;;;19.52;13.18;;;4.50;99.90;;;;;;5067256;28;20043;-50
2022/11/17 09:13:00;;;;;;;19.27;12.20;;;4.50;99.90;;;;;;5046180;28;20029;-48
2022/11/17 09:15:26;;;;;;;21.45;12.13;;;4.50;99.90;;;;;;5067051;28;20437;-48
2022/11/17 09:17:51;;;;;;;18.92;12.13;;;4.60;99.90;;;;;;5046641;28;20032;-48
2022/11/17 09:20:18;;;;;;;20.02;12.30;;;4.60;99.90;;;;;;5066812;28;20400;-50
2022/11/17 09:22:44;;;;;;;19.92;12.25;;;4.60;99.90;;;;;;5060110;28;20520;-46
2022/11/17 09:25:10;;;;;;;18.17;12.43;;;4.50;99.90;;;;;;5051866;28;20029;-48
2022/11/17 09:27:35;;;;;;;16.70;10.68;;;4.60;99.90;;;;;;5063867;28;20032;-51
2022/11/17 09:30:01;;;;;;;17.17;11.27;;;4.60;99.90;;;;;;5051984;28;20036;-51
2022/11/17 09:32:26;;;;;;;18.92;12.20;;;4.60;99.90;;;;;;5068640;28;20028;-51
2022/11/17 09:34:52;;;;;;;16.67;11.98;;;4.60;99.90;;;;;;5051892;28;20663;-48
2022/11/17 09:37:17;;;;;;;20.60;12.52;;;4.60;99.90;;;;;;5068637;28;20028;-47
2022/11/17 09:39:43;;;;;;;17.25;11.45;;;4.70;99.90;;;;;;5065753;28;20044;-49
2022/11/17 09:42:13;;;;;;;17.85;11.65;;;4.70;99.90;;;;;;5055116;28;20369;-49
2022/11/17 09:44:44;;;;;;;18.10;11.63;;;4.70;99.90;;;;;;5070939;28;20025;-49
2022/11/17 09:47:55;;;;;;;18.08;10.73;;;4.70;99.90;;;;;;5040944;28;20032;-43
2022/11/17 09:50:32;;;;;;;16.05;10.73;;;4.70;99.90;;;;;;5038294;28;20040;-48
2022/11/17 09:53:22;;;;;;;18.75;11.32;;;4.70;99.90;;;;;;5054132;28;20123;-43
2022/11/17 09:55:56;;;;;;;18.98;12.10;;;4.60;99.90;;;;;;5031265;28;20084;-45
2022/11/17 09:58:53;;;;;;;16.13;10.38;;;4.60;99.90;;;;;;5045141;28;20029;-45
2022/11/17 10:01:21;;;;;;;15.20;10.20;;;4.70;99.90;;;;;;5070627;28;20104;-48
2022/11/17 10:03:50;;;;;;;16.98;11.20;;;4.70;99.90;;;;;;5049049;28;20492;-45
2022/11/17 10:06:27;;;;;;;15.98;11.65;;;4.70;99.90;;;;;;5070687;28;20519;-46
2022/11/17 10:09:15;;;;;;;19.20;10.52;;;4.70;99.90;;;;;;5030992;28;20060;-45
2022/11/17 10:11:42;;;;;;;15.60;10.43;;;4.80;99.90;;;;;;5067305;28;20029;-46
2022/11/17 10:14:09;;;;;;;15.88;10.60;;;4.70;99.90;;;;;;5070947;28;20032;-46
2022/11/17 10:16:36;;;;;;;15.05;9.63;;;4.70;99.90;;;;;;5049986;28;20040;-46
2022/11/17 10:19:15;;;;;;;15.48;11.18;;;4.70;99.90;;;;;;5070745;28;20109;-46
2022/11/17 10:21:41;;;;;;;16.40;10.32;;;4.70;99.90;;;;;;5032448;28;20091;-42
2022/11/17 10:24:07;;;;;;;14.90;10.10;;;4.80;99.90;;;;;;5070333;28;20484;-44
2022/11/17 10:26:46;;;;;;;15.70;10.40;;;4.80;99.90;;;;;;5049513;28;20052;-43
2022/11/17 10:29:13;;;;;;;14.38;10.48;;;4.80;99.90;;;;;;5050294;28;20036;-42
2022/11/17 10:31:41;;;;;;;16.25;9.38;;;4.90;99.90;;;;;;5067622;28;20393;-43
2022/11/17 10:34:09;;;;;;;14.90;9.27;;;4.90;99.90;;;;;;5069158;28;20095;-42
2022/11/17 10:36:35;;;;;;;16.02;10.50;;;4.80;99.90;;;;;;5049489;28;20029;-47
2022/11/17 10:39:00;;;;;;;14.40;9.80;;;4.80;99.90;;;;;;5070078;28;20541;-44
2022/11/17 10:41:30;;;;;;;15.90;9.88;;;4.80;99.90;;;;;;5050576;28;20063;-42
2022/11/17 10:44:23;;;;;;;15.32;9.82;;;4.90;99.90;;;;;;5029914;28;20038;-44
2022/11/17 10:47:00;;;;;;;14.88;10.15;;;4.80;99.90;;;;;;5034077;28;20024;-43
2022/11/17 10:49:39;;;;;;;14.63;10.18;;;4.80;99.90;;;;;;5069929;28;20476;-42
2022/11/17 10:52:14;;;;;;;14.60;9.35;;;4.80;99.90;;;;;;5038257;28;20575;-43
2022/11/17 10:54:39;;;;;;;15.10;10.07;;;4.80;99.90;;;;;;5069755;28;20810;-44
2022/11/17 10:57:08;;;;;;;14.68;8.38;;;4.90;99.90;;;;;;5048478;28;20025;-44
2022/11/17 11:00:12;;;;;;;14.50;9.02;;;4.90;99.90;;;;;;5048246;28;20475;-44
2022/11/17 11:02:38;;;;;;;14.18;9.80;;;4.80;99.90;;;;;;5037743;28;20504;-48
2022/11/17 11:05:17;;;;;;;14.10;9.65;;;4.80;99.90;;;;;;5049805;28;20511;-46
2022/11/17 11:07:43;;;;;;;14.90;10.13;;;4.80;99.90;;;;;;5048330;28;20057;-45
2022/11/17 11:10:26;;;;;;;16.00;10.15;;;4.80;99.90;;;;;;5050017;28;20099;-45
2022/11/17 11:13:29;;;;;;;15.55;9.75;;;4.80;99.90;;;;;;5050755;28;20663;-45
2022/11/17 11:15:55;;;;;;;13.85;9.98;;;4.80;99.90;;;;;;5050116;28;20037;-43
2022/11/17 11:18:20;;;;;;;12.18;9.07;;;4.80;99.90;;;;;;5051186;28;20401;-43
2022/11/17 11:21:15;;;;;;;15.60;9.88;;;4.80;99.90;;;;;;5068632;28;20021;-48
2022/11/17 11:23:59;;;;;;;16.75;9.57;;;4.80;99.90;;;;;;5045954;28;20052;-44
2022/11/17 11:26:55;;;;;;;17.48;10.75;;;4.80;99.90;;;;;;5028939;28;20480;-42
2022/11/17 11:29:44;;;;;;;15.52;9.45;;;4.80;99.90;;;;;;5029246;28;20056;-43
2022/11/17 11:32:36;;;;;;;15.85;8.88;;;4.80;99.90;;;;;;5038951;28;20042;-44
2022/11/17 11:35:24;;;;;;;14.98;10.07;;;4.80;99.90;;;;;;5029297;28;20040;-44
2022/11/17 11:38:14;;;;;;;14.18;9.27;;;4.80;99.90;;;;;;5049790;28;20099;-45
2022/11/17 11:40:44;;;;;;;14.35;9.15;;;4.80;99.90;;;;;;5054514;28;20455;-45
2022/11/17 11:43:38;;;;;;;17.80;11.57;;;4.80;99.90;;;;;;5047220;28;20036;-46
2022/11/17 11:46:27;;;;;;;18.98;10.57;;;4.80;99.90;;;;;;5029070;28;20045;-45
2022/11/17 11:48:55;;;;;;;15.02;9.05;;;4.80;99.90;;;;;;5029039;28;20433;-42
2022/11/17 11:51:27;;;;;;;11.60;8.30;;;4.80;99.90;;;;;;5067942;28;20028;-47
2022/11/17 11:54:10;;;;;;;13.40;9.00;;;4.80;99.90;;;;;;5029019;28;20116;-43
2022/11/17 11:56:43;;;;;;;13.25;8.98;;;4.80;99.90;;;;;;5029251;28;20033;-43
2022/11/17 11:59:17;;;;;;;14.23;9.60;;;4.80;99.90;;;;;;5068794;28;20059;-45
2022/11/17 12:01:43;;;;;;;14.30;8.98;;;4.70;99.90;;;;;;5031080;28;20037;-44
2022/11/17 12:04:38;;;;;;;14.45;9.45;;;4.70;99.90;;;;;;5068608;28;20035;-48
2022/11/17 12:07:27;;;;;;;15.65;9.32;;;4.70;99.90;;;;;;5036486;28;20032;-47
2022/11/17 12:10:12;;;;;;;18.33;10.00;;;4.70;99.90;;;;;;5068658;28;20025;-50
2022/11/17 12:12:39;;;;;;;14.38;9.80;;;4.70;99.90;;;;;;5045773;28;20028;-50
2022/11/17 12:15:17;;;;;;;12.90;8.98;;;4.80;99.90;;;;;;5048748;28;20029;-48
2022/11/17 12:17:51;;;;;;;16.92;10.10;;;4.70;99.90;;;;;;5065716;28;20059;-49
2022/11/17 12:20:35;;;;;;;17.00;10.25;;;4.70;99.90;;;;;;5048882;28;20550;-47
2022/11/17 12:23:19;;;;;;;16.63;9.65;;;4.70;99.90;;;;;;5052645;28;20043;-47
2022/11/17 12:25:47;;;;;;;15.82;10.43;;;4.70;99.90;;;;;;5028375;28;20044;-52
2022/11/17 12:28:37;;;;;;;15.48;9.77;;;4.70;99.90;;;;;;5045271;28;20032;-49
2022/11/17 12:31:05;;;;;;;17.08;10.85;;;4.70;99.90;;;;;;5028254;28;20030;-52
2022/11/17 12:33:52;;;;;;;16.38;9.80;;;4.70;99.90;;;;;;5049056;28;20055;-45
2022/11/17 12:36:24;;;;;;;13.30;9.68;;;4.70;99.90;;;;;;5067130;28;20029;-51
2022/11/17 12:38:51;;;;;;;14.25;9.50;;;4.60;99.90;;;;;;5066242;28;20111;-45
2022/11/17 12:41:47;;;;;;;15.63;9.20;;;4.70;99.90;;;;;;5048295;28;20063;-46
2022/11/17 12:44:45;;;;;;;11.10;7.07;;;4.70;99.90;;;;;;5048095;28;20037;-49
2022/11/17 12:47:18;;;;;;;13.88;8.95;;;4.60;99.90;;;;;;5066180;28;20021;-49
2022/11/17 12:49:51;;;;;;;15.60;9.50;;;4.70;99.90;;;;;;5049301;28;20082;-46
2022/11/17 12:52:31;;;;;;;13.32;10.00;;;4.70;99.90;;;;;;5046962;28;20029;-51
2022/11/17 12:55:18;;;;;;;14.05;9.80;;;4.70;99.90;;;;;;5038763;28;20048;-50
2022/11/17 12:57:48;;;;;;;15.80;10.18;;;4.70;99.90;;;;;;5067316;28;20572;-44
2022/11/17 13:00:21;;;;;;;14.23;10.07;;;4.70;99.90;;;;;;5067103;28;20431;-51
2022/11/17 13:02:46;;;;;;;15.60;10.70;;;4.70;99.90;;;;;;5055746;28;20032;-48
2022/11/17 13:05:19;;;;;;;15.10;10.75;;;4.70;99.90;;;;;;5069960;28;20043;-44
2022/11/17 13:07:44;;;;;;;13.93;10.05;;;4.60;99.90;;;;;;5055172;28;20021;-47
2022/11/17 13:10:28;;;;;;;13.32;10.50;;;4.60;99.90;;;;;;5056538;28;20025;-43
2022/11/17 13:13:18;;;;;;;16.13;10.07;;;4.60;99.90;;;;;;5052817;28;20556;-50
2022/11/17 13:15:47;;;;;;;16.58;10.77;;;4.60;99.90;;;;;;5044262;28;20122;-50
2022/11/17 13:18:32;;;;;;;15.10;10.27;;;4.60;99.90;;;;;;5070274;28;20031;-44
2022/11/17 13:20:58;;;;;;;14.43;10.27;;;4.60;99.90;;;;;;5046377;28;20031;-51
2022/11/17 13:23:31;;;;;;;16.45;10.18;;;4.60;99.90;;;;;;5069591;28;20403;-47
2022/11/17 13:26:18;;;;;;;14.55;10.38;;;4.60;99.90;;;;;;5049022;28;20037;-48
2022/11/17 13:28:44;;;;;;;14.20;10.70;;;4.60;99.90;;;;;;5045246;28;20093;-46
2022/11/17 13:31:19;;;;;;;15.27;11.05;;;4.60;99.90;;;;;;5051099;28;20460;-47
2022/11/17 13:34:03;;;;;;;17.25;10.88;;;4.60;99.90;;;;;;5050799;28;20068;-48
2022/11/17 13:36:29;;;;;;;16.27;10.98;;;4.50;99.90;;;;;;5043792;28;20041;-49
2022/11/17 13:39:00;;;;;;;15.35;10.85;;;4.50;99.90;;;;;;5069371;28;20036;-47
2022/11/17 13:41:37;;;;;;;16.42;10.55;;;4.50;99.90;;;;;;5043288;28;20123;-45
2022/11/17 13:47:38;;;;;;;19.20;11.18;;;4.40;99.90;;;;;;5047239;28;20035;-45